createdAt,value
2023-03-16T00:01:28.186Z,3.50
2023-03-16T00:03:57.552Z,3.95
2023-03-16T00:06:26.962Z,3.20
2023-03-16T00:08:58.973Z,3.85
2023-03-16T00:11:29.184Z,3.10
2023-03-16T00:14:04.230Z,3.15
2023-03-16T00:16:33.719Z,3.80
2023-03-16T00:19:03.757Z,3.70
2023-03-16T00:21:35.271Z,5.70
2023-03-16T00:24:04.751Z,4.35
2023-03-16T00:26:34.925Z,3.92
2023-03-16T00:29:07.040Z,3.45
2023-03-16T00:31:36.738Z,3.28
2023-03-16T00:34:06.153Z,3.20
2023-03-16T00:36:38.241Z,3.20
2023-03-16T00:39:08.082Z,2.85
2023-03-16T00:41:38.614Z,3.97
2023-03-16T00:44:12.026Z,3.72
2023-03-16T00:46:42.868Z,2.75
2023-03-16T00:49:12.332Z,3.08
2023-03-16T00:51:46.010Z,3.45
2023-03-16T00:54:17.930Z,2.97
2023-03-16T00:56:47.517Z,4.75
2023-03-16T00:59:20.211Z,3.20
2023-03-16T01:01:49.664Z,2.65
2023-03-16T01:04:19.116Z,2.83
2023-03-16T01:06:48.582Z,2.88
2023-03-16T01:09:18.376Z,3.42
2023-03-16T01:11:49.434Z,3.10
2023-03-16T01:14:22.125Z,2.92
2023-03-16T01:16:51.952Z,3.45
2023-03-16T01:19:22.896Z,2.30
2023-03-16T01:21:52.355Z,3.70
2023-03-16T01:24:21.840Z,3.45
2023-03-16T01:26:51.531Z,3.53
2023-03-16T01:29:23.515Z,3.65
2023-03-16T01:31:52.955Z,4.30
2023-03-16T01:34:22.485Z,3.78
2023-03-16T01:36:53.064Z,4.13
2023-03-16T01:39:22.584Z,3.78
2023-03-16T01:41:52.139Z,3.50
2023-03-16T01:44:31.010Z,4.68
2023-03-16T01:47:01.267Z,4.28
2023-03-16T01:49:33.351Z,4.72
2023-03-16T01:52:06.155Z,4.45
2023-03-16T01:54:37.740Z,4.50
2023-03-16T01:57:09.684Z,4.18
2023-03-16T01:59:44.543Z,4.43
2023-03-16T02:02:14.544Z,4.38
2023-03-16T02:04:49.734Z,4.80
2023-03-16T02:07:21.212Z,4.55
2023-03-16T02:09:53.236Z,3.60
2023-03-16T02:12:23.489Z,3.92
2023-03-16T02:14:56.002Z,4.55
2023-03-16T02:17:28.225Z,4.45
2023-03-16T02:20:08.933Z,4.30
2023-03-16T02:22:38.877Z,4.25
2023-03-16T02:25:09.158Z,5.10
2023-03-16T02:27:45.714Z,4.55
2023-03-16T02:30:18.833Z,4.47
2023-03-16T02:32:51.597Z,3.90
2023-03-16T02:35:21.653Z,4.70
2023-03-16T02:37:52.581Z,5.03
2023-03-16T02:40:27.398Z,4.80
2023-03-16T02:42:59.573Z,4.57
2023-03-16T02:45:36.384Z,4.97
2023-03-16T02:48:10.287Z,5.13
2023-03-16T02:50:39.710Z,4.72
2023-03-16T02:53:09.076Z,5.50
2023-03-16T02:55:38.473Z,4.70
2023-03-16T02:58:07.987Z,5.35
2023-03-16T03:00:40.236Z,5.72
2023-03-16T03:03:10.670Z,4.90
2023-03-16T03:05:40.547Z,4.50
2023-03-16T03:08:10.603Z,5.22
2023-03-16T03:10:40.012Z,4.53
2023-03-16T03:13:10.017Z,6.22
2023-03-16T03:15:42.267Z,5.78
2023-03-16T03:18:11.734Z,5.78
2023-03-16T03:20:41.198Z,4.95
2023-03-16T03:23:10.641Z,4.82
2023-03-16T03:25:40.028Z,4.75
2023-03-16T03:28:09.515Z,5.10
2023-03-16T03:30:41.862Z,5.57
2023-03-16T03:33:11.370Z,4.72
2023-03-16T03:35:42.101Z,5.10
2023-03-16T03:38:11.627Z,5.28
2023-03-16T03:40:41.069Z,5.13
2023-03-16T03:43:10.563Z,4.88
2023-03-16T03:45:42.620Z,4.63
2023-03-16T03:48:12.044Z,4.78
2023-03-16T03:50:42.023Z,4.38
2023-03-16T03:53:11.397Z,4.68
2023-03-16T03:55:40.806Z,5.63
2023-03-16T03:58:10.604Z,4.45
2023-03-16T04:00:42.561Z,4.82
2023-03-16T04:03:12.229Z,4.63
2023-03-16T04:05:41.885Z,4.80
2023-03-16T04:08:11.760Z,4.32
2023-03-16T04:10:41.283Z,5.22
2023-03-16T04:13:10.715Z,4.30
2023-03-16T04:15:42.688Z,4.57
2023-03-16T04:18:12.913Z,5.10
2023-03-16T04:20:42.455Z,4.63
2023-03-16T04:23:11.990Z,5.07
2023-03-16T04:25:42.339Z,4.40
2023-03-16T04:28:11.765Z,4.30
2023-03-16T04:30:43.839Z,4.35
2023-03-16T04:33:14.946Z,4.13
2023-03-16T04:35:46.231Z,3.92
2023-03-16T04:38:15.680Z,4.80
2023-03-16T04:40:45.147Z,4.10
2023-03-16T04:43:14.828Z,3.40
2023-03-16T04:45:46.885Z,4.07
2023-03-16T04:48:16.312Z,3.92
2023-03-16T04:50:45.978Z,4.65
2023-03-16T04:53:15.411Z,4.25
2023-03-16T04:55:44.814Z,4.65
2023-03-16T04:58:14.356Z,3.65
2023-03-16T05:00:46.460Z,3.45
2023-03-16T05:03:16.041Z,3.38
2023-03-16T05:05:45.684Z,3.72
2023-03-16T05:08:15.205Z,3.78
2023-03-16T05:10:44.786Z,3.95
2023-03-16T05:13:14.156Z,4.25
2023-03-16T05:15:46.193Z,3.95
2023-03-16T05:18:15.584Z,3.60
2023-03-16T05:20:45.568Z,3.00
2023-03-16T05:23:16.768Z,3.63
2023-03-16T05:25:47.221Z,3.03
2023-03-16T05:28:16.743Z,4.10
2023-03-16T05:30:48.809Z,3.97
2023-03-16T05:33:18.290Z,3.65
2023-03-16T05:35:47.948Z,3.30
2023-03-16T05:38:17.405Z,3.72
2023-03-16T05:40:53.045Z,3.10
2023-03-16T05:43:23.188Z,3.25
2023-03-16T05:45:55.155Z,3.65
2023-03-16T05:48:25.807Z,4.00
2023-03-16T05:50:55.735Z,4.03
2023-03-16T05:53:29.383Z,3.30
2023-03-16T05:55:59.159Z,4.00
2023-03-16T05:58:28.809Z,3.55
2023-03-16T06:01:02.046Z,3.75
2023-03-16T06:03:32.023Z,3.65
2023-03-16T06:06:02.252Z,4.47
2023-03-16T06:08:31.712Z,3.47
2023-03-16T06:11:01.144Z,3.42
2023-03-16T06:13:30.797Z,3.40
2023-03-16T06:16:02.858Z,3.00
2023-03-16T06:18:32.760Z,3.33
2023-03-16T06:21:05.179Z,3.15
2023-03-16T06:23:36.745Z,3.30
2023-03-16T06:26:06.589Z,2.83
2023-03-16T06:28:36.294Z,3.10
2023-03-16T06:31:08.829Z,4.20
2023-03-16T06:33:38.874Z,3.20
2023-03-16T06:36:09.351Z,3.40
2023-03-16T06:38:38.796Z,3.15
2023-03-16T06:41:08.714Z,3.10
2023-03-16T06:43:38.255Z,3.78
2023-03-16T06:46:11.276Z,3.25
2023-03-16T06:48:41.871Z,3.35
2023-03-16T06:51:11.249Z,3.28
2023-03-16T06:53:41.448Z,2.83
2023-03-16T06:56:10.879Z,3.30
2023-03-16T06:58:40.623Z,2.50
2023-03-16T07:01:12.832Z,3.25
2023-03-16T07:03:42.597Z,3.38
2023-03-16T07:06:12.283Z,3.30
2023-03-16T07:08:42.599Z,3.33
2023-03-16T07:11:12.204Z,2.80
2023-03-16T07:13:41.711Z,3.53
2023-03-16T07:16:13.974Z,3.30
2023-03-16T07:18:44.484Z,2.83
2023-03-16T07:21:14.334Z,3.38
2023-03-16T07:23:44.827Z,3.28
2023-03-16T07:26:14.771Z,2.85
2023-03-16T07:28:45.027Z,3.35
2023-03-16T07:31:17.506Z,3.05
2023-03-16T07:33:46.983Z,4.00
2023-03-16T07:36:16.444Z,2.80
2023-03-16T07:38:46.182Z,2.30
2023-03-16T07:41:15.884Z,3.35
2023-03-16T07:43:45.925Z,3.45
2023-03-16T07:46:18.121Z,3.70
2023-03-16T07:48:48.299Z,3.00
2023-03-16T07:51:17.830Z,3.63
2023-03-16T07:53:47.303Z,4.17
2023-03-16T07:56:16.715Z,3.50
2023-03-16T07:58:46.146Z,3.50
2023-03-16T08:01:18.213Z,3.53
2023-03-16T08:03:47.695Z,3.63
2023-03-16T08:06:17.132Z,2.90
2023-03-16T08:08:46.549Z,3.30
2023-03-16T08:11:23.556Z,2.70
2023-03-16T08:13:54.454Z,2.60
2023-03-16T08:16:27.421Z,2.23
2023-03-16T08:18:59.770Z,3.10
2023-03-16T08:21:30.282Z,3.00
2023-03-16T08:23:59.736Z,2.53
2023-03-16T08:26:29.664Z,3.10
2023-03-16T08:29:02.591Z,2.67
2023-03-16T08:31:35.309Z,1.93
2023-03-16T08:34:05.599Z,3.00
2023-03-16T08:36:35.060Z,3.40
2023-03-16T08:39:07.597Z,2.87
2023-03-16T08:41:37.865Z,1.97
2023-03-16T08:44:08.219Z,2.40
2023-03-16T08:46:40.771Z,2.47
2023-03-16T08:49:11.022Z,2.10
2023-03-16T08:51:40.487Z,2.17
2023-03-16T08:54:10.862Z,3.20
2023-03-16T08:56:40.269Z,2.60
2023-03-16T08:59:19.874Z,2.33
2023-03-16T09:02:00.922Z,2.27
2023-03-16T09:04:30.981Z,2.70
2023-03-16T09:07:08.874Z,2.33
2023-03-16T09:09:40.087Z,2.73
2023-03-16T09:12:10.003Z,3.43
2023-03-16T09:14:39.773Z,2.90
2023-03-16T09:17:12.898Z,3.20
2023-03-16T09:19:51.976Z,2.57
2023-03-16T09:22:22.192Z,2.40
2023-03-16T09:24:52.315Z,1.90
2023-03-16T09:27:23.170Z,2.00
2023-03-16T09:29:55.815Z,1.90
2023-03-16T09:32:28.198Z,1.93
2023-03-16T09:34:58.038Z,2.33
2023-03-16T09:37:27.867Z,1.90
2023-03-16T09:40:06.630Z,1.60
2023-03-16T09:42:43.815Z,1.30
2023-03-16T09:45:18.825Z,2.40
2023-03-16T09:47:54.049Z,1.93
2023-03-16T09:50:30.354Z,2.23
2023-03-16T09:53:12.166Z,1.80
2023-03-16T09:55:42.935Z,1.90
2023-03-16T09:58:18.866Z,1.37
2023-03-16T10:00:54.185Z,2.23
2023-03-16T10:03:36.455Z,2.07
2023-03-16T10:06:07.853Z,2.00
2023-03-16T10:08:41.489Z,1.50
2023-03-16T10:11:25.406Z,1.73
2023-03-16T10:13:57.596Z,1.70
2023-03-16T10:16:31.743Z,2.10
2023-03-16T10:19:07.381Z,1.50
2023-03-16T10:21:43.308Z,1.40
2023-03-16T10:24:21.233Z,1.80
2023-03-16T10:26:56.380Z,1.60
2023-03-16T10:29:26.005Z,2.03
2023-03-16T10:31:57.794Z,1.60
2023-03-16T10:34:30.698Z,1.30
2023-03-16T10:37:06.533Z,1.40
2023-03-16T10:39:42.983Z,1.03
2023-03-16T10:42:20.039Z,1.67
2023-03-16T10:44:50.734Z,1.47
2023-03-16T10:47:23.093Z,2.83
2023-03-16T10:49:55.793Z,1.40
2023-03-16T10:52:28.308Z,1.00
2023-03-16T10:54:59.695Z,1.20
2023-03-16T10:57:30.861Z,0.80
2023-03-16T11:00:07.429Z,1.10
2023-03-16T11:02:37.507Z,1.23
2023-03-16T11:05:29.593Z,1.03
2023-03-16T11:08:02.856Z,1.00
2023-03-16T11:10:36.218Z,0.80
2023-03-16T11:13:15.937Z,1.10
2023-03-16T11:15:50.623Z,0.87
2023-03-16T11:18:29.653Z,1.00
2023-03-16T11:21:04.670Z,1.23
2023-03-16T11:23:36.386Z,0.80
2023-03-16T11:26:08.716Z,1.83
2023-03-16T11:28:41.912Z,1.27
2023-03-16T11:31:20.050Z,0.90
2023-03-16T11:33:49.940Z,1.10
2023-03-16T11:36:43.319Z,1.43
2023-03-16T11:39:18.181Z,0.80
2023-03-16T11:41:56.493Z,1.30
2023-03-16T11:44:31.519Z,0.70
2023-03-16T11:47:08.212Z,0.73
2023-03-16T11:49:57.884Z,0.70
2023-03-16T11:52:39.194Z,1.10
2023-03-16T11:55:22.359Z,1.30
2023-03-16T11:57:59.223Z,0.50
2023-03-16T12:00:34.426Z,1.17
2023-03-16T12:03:45.988Z,1.10
2023-03-16T12:06:24.553Z,0.80
2023-03-16T12:09:32.188Z,0.70
2023-03-16T12:12:07.650Z,0.80
2023-03-16T12:14:42.727Z,0.77
2023-03-16T12:17:16.066Z,0.90
2023-03-16T12:19:50.413Z,0.80
2023-03-16T12:22:23.471Z,0.60
2023-03-16T12:24:53.284Z,1.13
2023-03-16T12:27:27.984Z,0.80
2023-03-16T12:30:08.837Z,0.80
2023-03-16T12:32:46.774Z,0.90
2023-03-16T12:35:24.985Z,1.60
2023-03-16T12:38:02.640Z,1.23
2023-03-16T12:40:39.632Z,1.10
2023-03-16T12:43:22.519Z,1.20
2023-03-16T12:46:04.452Z,0.93
2023-03-16T12:48:35.839Z,0.77
2023-03-16T12:51:06.425Z,0.77
2023-03-16T12:53:46.712Z,0.73
2023-03-16T12:56:17.961Z,0.83
2023-03-16T12:58:51.660Z,1.27
2023-03-16T13:01:24.693Z,0.70
2023-03-16T13:04:03.484Z,0.83
2023-03-16T13:06:36.520Z,0.80
2023-03-16T13:09:07.880Z,0.60
2023-03-16T13:11:50.032Z,1.00
2023-03-16T13:14:38.253Z,0.67
2023-03-16T13:17:09.707Z,1.10
2023-03-16T13:19:40.452Z,0.80
2023-03-16T13:22:23.332Z,0.73
2023-03-16T13:24:54.553Z,0.93
2023-03-16T13:27:25.927Z,0.87
2023-03-16T13:30:00.002Z,1.00
2023-03-16T13:32:32.956Z,0.97
2023-03-16T13:35:03.767Z,3.17
2023-03-16T13:37:33.899Z,1.77
2023-03-16T13:40:05.572Z,1.27
2023-03-16T13:42:35.609Z,1.10
2023-03-16T13:45:19.094Z,1.00
2023-03-16T13:47:48.540Z,0.73
2023-03-16T13:50:18.879Z,0.90
2023-03-16T13:52:55.908Z,0.83
2023-03-16T13:55:30.592Z,0.80
2023-03-16T13:58:00.137Z,0.87
2023-03-16T14:00:35.091Z,0.87
2023-03-16T14:03:11.968Z,0.97
2023-03-16T14:05:41.455Z,1.20
2023-03-16T14:08:18.701Z,1.67
2023-03-16T14:10:48.747Z,1.20
2023-03-16T14:13:38.397Z,1.50
2023-03-16T14:16:16.714Z,1.53
2023-03-16T14:18:48.231Z,1.17
2023-03-16T14:21:19.892Z,0.80
2023-03-16T14:23:51.187Z,0.80
2023-03-16T14:26:22.776Z,0.80
2023-03-16T14:29:00.852Z,0.87
2023-03-16T14:31:41.291Z,1.00
2023-03-16T14:34:24.064Z,0.67
2023-03-16T14:36:53.500Z,1.13
2023-03-16T14:39:23.990Z,1.00
2023-03-16T14:41:53.784Z,0.60
2023-03-16T14:44:25.167Z,0.90
2023-03-16T14:47:00.258Z,0.70
2023-03-16T14:49:32.160Z,1.20
2023-03-16T14:52:03.410Z,0.80
2023-03-16T14:54:33.306Z,0.87
2023-03-16T14:57:05.561Z,1.07
2023-03-16T14:59:35.478Z,0.93
2023-03-16T15:02:12.856Z,1.27
2023-03-16T15:04:44.032Z,0.73
2023-03-16T15:07:25.861Z,1.00
2023-03-16T15:09:56.757Z,0.80
2023-03-16T15:12:27.350Z,1.00
2023-03-16T15:15:18.004Z,0.87
2023-03-16T15:17:50.772Z,2.40
2023-03-16T15:20:24.258Z,0.87
2023-03-16T15:22:56.872Z,1.57
2023-03-16T15:25:29.022Z,0.80
2023-03-16T15:27:58.654Z,0.67
2023-03-16T15:30:31.118Z,1.13
2023-03-16T15:33:03.300Z,1.10
2023-03-16T15:35:32.967Z,1.40
2023-03-16T15:38:03.083Z,1.60
2023-03-16T15:40:32.900Z,1.23
2023-03-16T15:43:02.584Z,0.90
2023-03-16T15:45:32.009Z,1.33
2023-03-16T15:48:04.053Z,0.97
2023-03-16T15:50:33.830Z,1.17
2023-03-16T15:53:07.012Z,1.07
2023-03-16T15:55:39.182Z,0.67
2023-03-16T15:58:13.336Z,4.03
2023-03-16T16:00:43.859Z,3.03
2023-03-16T16:03:16.525Z,1.47
2023-03-16T16:05:45.946Z,2.30
2023-03-16T16:08:15.469Z,1.20
2023-03-16T16:10:45.668Z,0.80
2023-03-16T16:13:17.232Z,1.43
2023-03-16T16:15:47.074Z,0.90
2023-03-16T16:18:39.471Z,1.10
2023-03-16T16:21:09.909Z,1.10
2023-03-16T16:23:42.903Z,3.40
2023-03-16T16:26:21.253Z,1.40
2023-03-16T16:28:51.374Z,1.03
2023-03-16T16:31:21.816Z,1.30
2023-03-16T16:33:53.955Z,1.03
2023-03-16T16:36:25.299Z,0.90
2023-03-16T16:38:57.030Z,0.90
2023-03-16T16:41:28.610Z,1.30
2023-03-16T16:43:59.208Z,0.80
2023-03-16T16:46:30.012Z,0.97
2023-03-16T16:49:05.090Z,1.30
2023-03-16T16:51:34.696Z,1.23
2023-03-16T16:54:04.929Z,0.80
2023-03-16T16:56:36.487Z,0.90
2023-03-16T16:59:16.891Z,1.20
2023-03-16T17:01:46.872Z,0.83
2023-03-16T17:04:23.234Z,0.80
2023-03-16T17:06:55.598Z,0.70
2023-03-16T17:09:25.233Z,0.80
2023-03-16T17:11:56.153Z,1.00
2023-03-16T17:14:28.301Z,1.27
2023-03-16T17:16:58.493Z,1.40
2023-03-16T17:19:31.629Z,1.00
2023-03-16T17:22:01.539Z,0.90
2023-03-16T17:24:31.378Z,0.80
2023-03-16T17:27:02.598Z,1.60
2023-03-16T17:29:34.245Z,1.40
2023-03-16T17:32:04.633Z,2.20
2023-03-16T17:34:37.066Z,1.63
2023-03-16T17:37:06.576Z,1.23
2023-03-16T17:39:37.127Z,1.13
2023-03-16T17:42:08.688Z,1.10
2023-03-16T17:44:41.128Z,1.43
2023-03-16T17:47:17.272Z,1.03
2023-03-16T17:49:49.323Z,1.03
2023-03-16T17:52:20.795Z,1.13
2023-03-16T17:54:52.080Z,1.40
2023-03-16T17:57:27.376Z,1.33
2023-03-16T17:59:57.008Z,1.40
2023-03-16T18:02:38.380Z,1.20
2023-03-16T18:05:19.524Z,2.20
2023-03-16T18:07:49.449Z,1.20
2023-03-16T18:10:20.663Z,1.53
2023-03-16T18:12:51.984Z,12.13
2023-03-16T18:15:21.828Z,3.50
2023-03-16T18:17:51.246Z,1.20
2023-03-16T18:20:31.463Z,1.33
2023-03-16T18:23:02.059Z,2.17
2023-03-16T18:25:35.303Z,2.10
2023-03-16T18:28:04.979Z,1.50
2023-03-16T18:30:34.733Z,3.23
2023-03-16T18:33:05.227Z,2.43
2023-03-16T18:35:38.534Z,1.97
2023-03-16T18:38:16.286Z,1.50
2023-03-16T18:40:45.702Z,1.80
2023-03-16T18:43:18.244Z,2.23
2023-03-16T18:45:48.555Z,1.10
2023-03-16T18:48:23.378Z,1.83
2023-03-16T18:50:55.754Z,1.60
2023-03-16T18:53:25.274Z,2.13
2023-03-16T18:55:57.331Z,2.30
2023-03-16T18:58:27.313Z,1.97
2023-03-16T19:00:58.408Z,1.83
2023-03-16T19:03:29.414Z,2.20
2023-03-16T19:06:02.738Z,1.50
2023-03-16T19:08:34.401Z,3.53
2023-03-16T19:11:04.577Z,3.10
2023-03-16T19:13:34.288Z,2.80
2023-03-16T19:16:04.285Z,4.17
2023-03-16T19:18:33.594Z,2.10
2023-03-16T19:21:05.678Z,1.70
2023-03-16T19:23:36.908Z,1.70
2023-03-16T19:26:06.523Z,3.00
2023-03-16T19:28:39.338Z,8.10
2023-03-16T19:31:17.440Z,1.97
2023-03-16T19:33:47.001Z,1.60
2023-03-16T19:36:22.284Z,2.77
2023-03-16T19:38:52.625Z,3.30
2023-03-16T19:41:27.574Z,2.57
2023-03-16T19:43:58.365Z,1.70
2023-03-16T19:46:29.173Z,1.70
2023-03-16T19:48:59.072Z,2.17
2023-03-16T19:51:32.278Z,1.70
2023-03-16T19:54:01.715Z,2.33
2023-03-16T19:56:31.411Z,2.30
2023-03-16T19:59:01.313Z,2.20
2023-03-16T20:01:33.616Z,2.03
2023-03-16T20:04:04.465Z,2.30
2023-03-16T20:06:36.552Z,2.00
2023-03-16T20:09:06.720Z,1.90
2023-03-16T20:11:36.507Z,2.07
2023-03-16T20:14:06.454Z,2.00
2023-03-16T20:16:37.798Z,2.53
2023-03-16T20:19:15.481Z,6.50
2023-03-16T20:21:47.472Z,4.30
2023-03-16T20:24:18.209Z,1.90
2023-03-16T20:26:48.108Z,2.30
2023-03-16T20:29:20.177Z,2.03
2023-03-16T20:31:49.918Z,4.43
2023-03-16T20:34:24.540Z,2.07
2023-03-16T20:36:56.830Z,2.13
2023-03-16T20:39:26.415Z,2.03
2023-03-16T20:41:56.042Z,3.60
2023-03-16T20:44:26.788Z,3.23
2023-03-16T20:46:56.356Z,2.17
2023-03-16T20:49:34.063Z,2.53
2023-03-16T20:52:17.444Z,2.10
2023-03-16T20:54:47.545Z,1.83
2023-03-16T20:57:18.571Z,2.67
2023-03-16T20:59:49.320Z,1.80
2023-03-16T21:02:29.043Z,2.40
2023-03-16T21:04:59.611Z,2.40
2023-03-16T21:07:31.909Z,2.30
2023-03-16T21:10:01.690Z,2.63
2023-03-16T21:12:32.415Z,4.53
2023-03-16T21:15:02.548Z,2.90
2023-03-16T21:17:34.429Z,2.03
2023-03-16T21:20:03.883Z,4.50
2023-03-16T21:22:36.705Z,3.90
2023-03-16T21:25:06.211Z,2.50
2023-03-16T21:27:37.608Z,2.40
2023-03-16T21:30:13.773Z,2.20
2023-03-16T21:32:43.258Z,1.97
2023-03-16T21:35:15.584Z,2.23
2023-03-16T21:37:47.857Z,2.20
2023-03-16T21:40:21.037Z,4.53
2023-03-16T21:42:50.735Z,1.80
2023-03-16T21:45:20.393Z,2.40
2023-03-16T21:47:50.138Z,2.37
2023-03-16T21:50:22.420Z,2.20
2023-03-16T21:52:54.869Z,1.77
2023-03-16T21:55:27.047Z,2.30
2023-03-16T21:57:56.873Z,1.70
2023-03-16T22:00:29.166Z,2.83
2023-03-16T22:03:00.346Z,1.93
2023-03-16T22:05:34.582Z,1.87
2023-03-16T22:08:16.085Z,2.13
2023-03-16T22:10:45.820Z,2.70
2023-03-16T22:13:15.400Z,2.23
2023-03-16T22:15:45.863Z,1.90
2023-03-16T22:18:25.465Z,2.80
2023-03-16T22:20:54.942Z,2.40
2023-03-16T22:23:34.752Z,2.10
2023-03-16T22:26:04.739Z,2.50
2023-03-16T22:28:34.800Z,2.20
2023-03-16T22:31:06.059Z,2.20
2023-03-16T22:33:37.849Z,2.43
2023-03-16T22:36:11.716Z,2.30
2023-03-16T22:38:44.314Z,2.80
2023-03-16T22:41:15.669Z,2.23
2023-03-16T22:43:46.503Z,2.10
2023-03-16T22:46:21.134Z,2.30
2023-03-16T22:48:50.926Z,2.50
2023-03-16T22:51:25.320Z,1.70
2023-03-16T22:53:59.934Z,2.40
2023-03-16T22:56:30.074Z,2.30
2023-03-16T22:59:01.666Z,4.33
2023-03-16T23:01:34.450Z,1.93
2023-03-16T23:04:04.218Z,3.00
2023-03-16T23:06:35.149Z,1.97
2023-03-16T23:09:07.283Z,2.00
2023-03-16T23:11:38.529Z,2.00
2023-03-16T23:14:13.721Z,1.63
2023-03-16T23:16:44.128Z,2.30
2023-03-16T23:19:25.542Z,2.03
2023-03-16T23:21:56.517Z,1.70
2023-03-16T23:24:28.885Z,1.93
2023-03-16T23:26:58.606Z,5.10
2023-03-16T23:29:28.893Z,2.13
2023-03-16T23:31:58.865Z,2.03
2023-03-16T23:34:28.645Z,3.07
2023-03-16T23:36:58.290Z,2.03
2023-03-16T23:39:30.275Z,2.00
2023-03-16T23:41:59.888Z,1.80
2023-03-16T23:44:30.599Z,4.60
2023-03-16T23:47:00.013Z,1.93
2023-03-16T23:49:32.557Z,2.43
2023-03-16T23:52:03.322Z,3.30
2023-03-16T23:54:35.470Z,2.10
2023-03-16T23:57:04.876Z,1.60
2023-03-16T23:59:34.255Z,1.90
